24 czerwca 2022

Czas Kod Pogoda Temp. Widoczność Sufit Wiatr METAR/SPECI
5:00 pm
V
57 °F 15 mi - 360° 360° 19 - 26 kt METAR CYYC 242300Z 36019G26KT 15SM SCT040 SCT075 14/02 A3023 RMK SC3AC1 SH DIST SW / TCU ASOCTD SW SLP258 DENSITY ALT 4100FT
4:00 pm
V
55 °F 15 mi 3.500 ft 350° 350° 20 - 29 kt METAR CYYC 242200Z 35020G29KT 15SM BKN035TCU BKN079 BKN190 13/03 A3023 RMK TCU5AC1AC1 AC TR SH DIST S-W SLP257 DENSITY ALT 3900FT
3:20 pm
M
54 °F 15 mi 2.800 ft 330° 330° 22 - 28 kt METAR CYYC 242120Z 33022G28KT 15SM VCSH BKN028TCU BKN070 12/05 A3022 RMK TCU5AC1 SH S-SW SLP255 DENSITY ALT 3800FT
3:00 pm
V
50 °F 20 mi 3.100 ft 340° 340° 20 - 31 kt METAR CYYC 242100Z 34020G31KT 20SM -SHRA BKN031TCU BKN073 10/05 A3022 RMK TCU7AC1 AC TR SLP258
2:20 pm
M
54 °F 15 mi 2.900 ft 340° 340° 21 - 30 kt METAR CYYC 242020Z 34021G30KT 15SM -SHRA BKN029TCU BKN082 12/04 A3020 RMK TCU6AC1 TCU MOVG S SLP249 DENSITY ALT 3800FT
2:00 pm
V
54 °F 20 mi 7.000 ft 340° 340° 23 - 31 kt METAR CYYC 242000Z 34023G31KT 20SM SCT030 BKN070 12/05 A3019 RMK SC4AC2 SH DIST S-W / TCU ASOCTD S-W+E MOVG S SLP245 DENSITY ALT 3900FT
1:00 pm
V
54 °F 10 mi 5.600 ft 350° 350° 21 - 31 kt METAR CYYC 241900Z 35021G31KT 10SM FEW035CB BKN056 BKN070 12/06 A3018 RMK CB2SC3AC1 SH DIST SW / CB S-NW MOVG S SLP241 DENSITY ALT 3800FT
12:26 pm
V
52 °F 15 mi 4.800 ft 350° 350° 23 - 34 kt METAR CYYC 241826Z 35023G34KT 15SM -SHRA FEW029 BKN048 BKN100 BKN150 11/03 A3016 RMK SC2SC3AC1AC1 CVCTV CLD EMBD SLP235 DENSITY ALT 3800FT
12:00 pm
V
52 °F 20 mi 10.000 ft 340° 340° 25 - 33 kt METAR CYYC 241800Z 34025G33KT 20SM FEW030 SCT050TCU BKN100 BKN150 11/04 A3014 RMK SC2TCU1AC2AC1 SH DIST SW+NW / TCU SW-NW MOVG S SLP229 DENSITY ALT 3800FT
11:13 am
V
48 °F 15 mi 6.400 ft 360° 360° 21 - 31 kt METAR CYYC 241713Z 36021G31KT 15SM VCSH FEW018 SCT024TCU BKN064 BKN120 09/05 A3014 RMK CF1TCU3SC2AC1 SH SW-NW / TCU SE-NW MOVG S SLP230
11:00 am
V
48 °F 10 mi 5.000 ft 360° 360° 25 - 32 kt METAR CYYC 241700Z 36025G32KT 10SM -SHRA SCT023TCU BKN050 BKN073 BKN120 09/05 A3013 RMK TCU3SC2AC2AC1 AC TR OCNL -SHRA / TCU OVRHD+W+E MOVG S SLP228
10:00 am
V
48 °F 10 mi 4.100 ft 360° 360° 22 - 32 kt METAR CYYC 241600Z 36022G32KT 10SM -SHRA FEW018 BKN041 OVC084 09/05 A3011 RMK CF2SC4AC2 CVCTV CLD EMBD SLP219
9:00 am
V
48 °F 15 mi 5.000 ft 350° 350° 20 - 30 kt METAR CYYC 241500Z 35020G30KT 15SM -SHRA SCT016 BKN050 OVC085 09/05 A3009 RMK CF3SC2AC3 CVCTV CLD EMBD SLP210
8:34 am
V
46 °F 15 mi 8.800 ft 350° 350° 20 - 29 kt METAR CYYC 241434Z 35020G29KT 15SM -RA SCT015 SCT057 OVC088 08/06 A3007 RMK CF4SC1AC4 SC TR -RA INTMT SLP206
8:00 am
V
46 °F 15 mi 6.600 ft 360° 360° 19 - 31 kt METAR CYYC 241400Z 36019G31KT 15SM SCT016 BKN066 OVC082 08/06 A3006 RMK CF3AC4AC1 SLP201
7:00 am
V
46 °F 10 mi 3.400 ft 350° 350° 14 - 20 kt METAR CYYC 241300Z 35014G20KT 10SM SCT014 BKN034 OVC074 08/07 A3003 RMK SF3SC3AC2 OCNL -SHRA SLP191
6:00 am
M
46 °F 4 mi 2.200 ft 350° 350° 13 kt METAR CYYC 241200Z 35013KT 4SM -SHRA BR FEW011 OVC022 08/06 A3001 RMK SF2SC6 CVCTV CLD EMBD SLP184
5:35 am
M
46 °F 8 mi 2.400 ft 350° 350° 10 kt METAR CYYC 241135Z 35010KT 8SM -SHRA SCT013 OVC024 08/07 A3000 RMK SC3SC5 CVCTV CLD EMBD SLP178
5:16 am
M
45 °F 10 mi 1.100 ft 340° 340° 12 - 18 kt METAR CYYC 241116Z 34012G18KT 10SM BKN011 OVC023 07/06 A2999 RMK SC6SC2 INTMT -RA SLP177
5:00 am
M
45 °F 4 mi 1.400 ft 320° 320° 11 - 18 kt METAR CYYC 241100Z CCA 32011G18KT 4SM -RA BR FEW008 OVC014 07/06 A2998 RMK SF1SC8 SF TR -RA INTMT SLP174
4:51 am
M
45 °F 5 mi 1.300 ft 320° 320° 13 kt METAR CYYC 241051Z 32013KT 5SM -RA BR FEW008 BKN013 07/06 A2998 RMK SF1SC8 SF TR -RA INTMT SLP174
4:42 am
M
45 °F 7 mi 1.400 ft 330° 330° 13 kt METAR CYYC 241042Z 33013KT 7SM FEW009 BKN014 OVC022 07/06 A2998 RMK SF1SC5SC3 SF TR SLP174
4:00 am
M
45 °F 8 mi 2.600 ft 310° 310° 16 kt METAR CYYC 241000Z 31016KT 8SM -RA SCT019 OVC026 07/05 A2996 RMK SC3SC5 SLP170
3:07 am
M
46 °F 7 mi 2.600 ft 310° 310° 17 - 23 kt METAR CYYC 240907Z 31017G23KT 7SM -RA BKN026 OVC037 08/04 A2995 RMK SC6SC2 SLP163
2:21 am
V
46 °F 15 mi 3.400 ft 300° 300° 15 - 21 kt METAR CYYC 240821Z 30015G21KT 15SM VCSH BKN034 08/04 A2994 RMK SC7 SH S-SW/VIS S-SW 7 SLP160
2:00 am
V
46 °F 8 mi 4.800 ft 320° 320° 10 - 20 kt METAR CYYC 240800Z 32010G20KT 8SM -RA OVC048 08/05 A2995 RMK SC8 PCPN VRY LGT SLP163
1:09 am
V
46 °F 8 mi 4.200 ft 340° 340° 11 - 17 kt METAR CYYC 240709Z 34011G17KT 8SM -RA OVC042 08/04 A2995 RMK SC8 -RA INTMT SLP164 DENSITY ALT 3700FT
1:00 am
V
46 °F 15 mi 4.300 ft 340° 340° 11 kt METAR CYYC 240700Z 34011KT 15SM OVC043 08/04 A2994 RMK SC8 VIRGA ALQDS SLP163 DENSITY ALT 3700FT
12:38 am
V
48 °F 15 mi 5.200 ft 340° 340° 12 kt METAR CYYC 240638Z 34012KT 15SM BKN052 09/04 A2993 RMK SC7 VIRGA ALQDS SLP158 DENSITY ALT 3700FT
12:17 am
V
46 °F 15 mi 5.600 ft 340° 340° 12 - 21 kt METAR CYYC 240617Z 34012G21KT 15SM -RA BKN056 BKN083 08/04 A2993 RMK SC6AC1 PCPN VRY LGT SLP156 DENSITY ALT 3700FT
12:00 am
V
46 °F 15 mi 6.000 ft 330° 330° 15 - 20 kt METAR CYYC 240600Z 33015G20KT 15SM BKN060 BKN083 08/03 A2993 RMK SC5AC2 VIRGA NW-NE SLP156 DENSITY ALT 3700FT

23 czerwca 2022

Czas Kod Pogoda Temp. Widoczność Sufit Wiatr METAR/SPECI
11:00 pm
V
48 °F 15 mi - 330° 330° 7 kt METAR CYYC 240500Z 33007KT 15SM FEW064 SCT140 09/02 A2992 RMK SC2AC1 SLP152 DENSITY ALT 3800FT
10:00 pm
V
50 °F 15 mi - 320° 320° 8 kt METAR CYYC 240400Z 32008KT 15SM FEW064 SCT130 10/02 A2992 RMK SC1AC3 SC TR SLP153 DENSITY ALT 3900FT
9:00 pm
V
50 °F 20 mi 8.300 ft 330° 330° 10 - 16 kt METAR CYYC 240300Z 33010G16KT 20SM FEW066 BKN083 BKN220 10/02 A2991 RMK AC1AC5CI1 CI TR SLP147 DENSITY ALT 4000FT
8:00 pm
V
50 °F 20 mi 13.000 ft 340° 340° 16 kt METAR CYYC 240200Z 34016KT 20SM SCT073 BKN130 BKN220 10/03 A2991 RMK AC3AC2CI1 SLP146 DENSITY ALT 3900FT
7:00 pm
V
52 °F 30 mi 10.000 ft 340° 340° 15 - 24 kt METAR CYYC 240100Z 34015G24KT 30SM FEW030 SCT067CB BKN100 11/02 A2990 RMK SC2CB2AS3 SH DIST NW-NE / CB NW-NE MOVG E SLP141 DENSITY ALT 4100FT
6:00 pm
V
52 °F 30 mi 6.000 ft 340° 340° 18 - 25 kt METAR CYYC 240000Z 34018G25KT 30SM VCSH FEW030 SCT047CB BKN060 BKN150 11/02 A2989 RMK SC1CB2SC2AC1 SH NW-N+SE / CB NW-N+E MOVG E SLP138 DENSITY ALT 4100FT
5:00 pm
V
54 °F 25 mi 13.000 ft 340° 340° 12 - 20 kt METAR CYYC 232300Z 34012G20KT 25SM FEW020 FEW030CB SCT075 BKN130 12/04 A2988 RMK SC1CB1AC2AC3 SC TR SH DIST NW-N / CB NW MOVG E SLP133 DENSITY ALT 4200FT
4:00 pm
V
50 °F 25 mi 4.900 ft 010° 010° 20 - 28 kt METAR CYYC 232200Z 01020G28KT 25SM FEW020 FEW030CB BKN049 BKN094 10/05 A2988 RMK SC1CB1SC3AC1 SH DIST NW-E+SW / CB NW-E MOVG E SLP133 DENSITY ALT 4000FT
3:18 pm
V
52 °F 30 mi 5.400 ft 340° 340° 13 - 19 kt METAR CYYC 232118Z 34013G19KT 30SM VCSH FEW020 SCT029CB BKN054 BKN089 11/06 A2987 RMK SC1CB3SC2AC1 SC TR SH NW-SW / CB NW-SE MOVG E SLP130 DENSITY ALT 4100FT
3:00 pm
V
52 °F 35 mi 5.400 ft 330° 330° 16 - 24 kt METAR CYYC 232100Z 33016G24KT 260V350 35SM -SHRA SCT030CB BKN054 BKN110 11/05 A2987 RMK CB4SC2AC1 -SHGS CB OVRHD+S-NE MOVG E SLP128 DENSITY ALT 4100FT
2:18 pm
V
54 °F 30 mi 6.900 ft 010° 010° 10 kt METAR CYYC 232018Z 01010KT 30SM SCT034CB SCT044 BKN069 BKN100 12/07 A2984 RMK CB3SC1AC1AC1 AC TR SH ALQDS / CB S-NE MOVG NE SLP119 DENSITY ALT 4200FT
2:00 pm
V
52 °F 15 mi 4.100 ft 030° 030° 8 kt METAR CYYC 232000Z 03008KT 350V050 15SM -SHRA FEW016 FEW028CB BKN041 BKN066 11/07 A2985 RMK CF1CB1SC4AC2 CF TR OCNL -SHRA / CB SW-NW MOVING NE SLP124 DENSITY ALT 4100FT
1:00 pm
V
50 °F 15 mi 4.100 ft 040° 040° 10 kt METAR CYYC 231900Z 04010KT 15SM -SHRA FEW017 FEW029CB BKN041 BKN071 10/07 A2984 RMK CF1CB2SC5AC1 CF TR AC TR CB SW-NW MOVG NE SLP121 DENSITY ALT 4000FT
12:23 pm
M
50 °F 8 mi 2.600 ft 010° 010° 9 kt METAR CYYC 231823Z 01009KT 8SM -SHRA FEW013 BKN026CB BKN035 10/08 A2984 RMK CF2CB3SC2 CB OVRHD MOVG NE SLP119 DENSITY ALT 4000FT
12:08 pm
V
50 °F 10 mi 3.000 ft 360° 360° 10 kt METAR CYYC 231808Z 36010KT 10SM -SHRA SCT013 BKN030CB 10/07 A2984 RMK CF3CB4 -SHGS SLP120 DENSITY ALT 4000FT
12:00 pm
V
50 °F 15 mi 3.400 ft 010° 010° 10 kt METAR CYYC 231800Z 01010KT 15SM VCSH SCT015 BKN034 10/07 A2983 RMK CF4SC3 SH SW-NW / CB ASOCTD SW+NW MOVG NE SLP116 DENSITY ALT 4000FT
11:00 am
V
52 °F 15 mi 7.300 ft 030° 030° 12 - 18 kt METAR CYYC 231700Z 03012G18KT 15SM FEW007 FEW035 SCT047CB BKN073 11/09 A2980 RMK CF1SC2CB2AC1 CF TR CB SW-NE MOVG NE SLP106 DENSITY ALT 4200FT
10:19 am
V
46 °F 15 mi 3.900 ft 020° 020° 13 kt METAR CYYC 231619Z 02013KT 15SM -RA FEW007 BKN039 08/08 A2982 RMK CF1SC6 SLP117 DENSITY ALT 3800FT
10:10 am
V
46 °F 15 mi 4.400 ft 010° 010° 12 - 19 kt METAR CYYC 231610Z 01012G19KT 15SM FEW007 BKN044 08/07 A2982 RMK CF1SC6 /R10/ SLP116 DENSITY ALT 3800FT
10:00 am
V
46 °F 15 mi 4.200 ft 360° 360° 12 - 18 kt METAR CYYC 231600Z 36012G18KT 15SM -TSRA BR FEW007 BKN042 08/07 A2983 RMK CF2SC5 CB EMBD / VIS LWR NW-SE SLP121 DENSITY ALT 3800FT
9:47 am
V
46 °F 5 mi 4.200 ft 020° 020° 15 - 22 kt METAR CYYC 231547Z 02015G22KT 5SM R35L/5000VP6000FT/U R35R/2600VP6000FT/ -TSRA BR SCT003 BKN042 08/07 A2982 RMK ST4SC4 CB EMBD / VIS IMPRG RPDLY SLP117 DENSITY ALT 3800FT
9:37 am
L
48 °F ¾ mi 300 ft 360° 360° 23 kt METAR CYYC 231537Z 36023KT 320V040 3/4SM R35L/2200VP6000FT/D R35R/6000FT/N TSRA BKN003 OVC031CB 09/07 A2984 RMK ST7CB1 -SHGS PRESRR SLP121 DENSITY ALT 3800FT
9:34 am
L
52 °F ¾ mi 300 ft 340° 340° 15 kt METAR CYYC 231534Z 34015KT 320V060 3/4SM R35L/4500VP6000FT/N R35R/P6000FT/U TSRA OVC003 11/10 A2983 RMK ST8 CB CLD EMBD PRESRR SLP116 DENSITY ALT 4100FT
9:28 am
L
52 °F ¾ mi 300 ft 040° 040° 5 kt METAR CYYC 231528Z 04005KT 020V100 3/4SM R35L/P6000FT/U R35R/P6000FT/D -DZ BR OVC003 11/10 A2981 RMK ST8 SLP109 DENSITY ALT 4100FT
9:14 am
L
52 °F 2 mi 400 ft 080° 080° 6 kt METAR CYYC 231514Z 08006KT 2SM BR OVC004 11/10 A2981 RMK ST8 VIS VRB 11/2-3 SLP107 DENSITY ALT 4100FT
9:00 am
L
52 °F 3 mi 400 ft 060° 060° 6 kt METAR CYYC 231500Z 06006KT 3SM BR BKN004 OVC011 11/10 A2981 RMK ST6SC2 VIS VRB 21/4-4 SLP106 DENSITY ALT 4200FT
8:28 am
L
52 °F 5 mi 400 ft 120° 120° 5 kt METAR CYYC 231428Z 12005KT 5SM BR BKN004 OVC014 11/10 A2982 RMK ST7SC1 VIS VRB 3-7 VIS LWR NW-NE SLP109 DENSITY ALT 4100FT
8:00 am
I
52 °F 5 mi 500 ft 100° 100° 9 kt METAR CYYC 231400Z 10009KT 5SM BR BKN005 OVC015 11/10 A2982 RMK ST6SC2 SLP106 DENSITY ALT 4100FT
7:00 am
I
52 °F 5 mi 800 ft 080° 080° 9 kt METAR CYYC 231300Z 08009KT 5SM BR BKN008 BKN014 11/10 A2983 RMK SC5SC2 SLP110 DENSITY ALT 4100FT
6:47 am
I
50 °F 5 mi 900 ft 080° 080° 9 kt METAR CYYC 231247Z 08009KT 5SM BR BKN009 OVC014 10/10 A2983 RMK SC7SC1 SLP111 DENSITY ALT 4100FT
6:21 am
L
50 °F 2½ mi 300 ft 080° 080° 9 kt METAR CYYC 231221Z 08009KT 2 1/2SM BR BKN003 BKN130 10/09 A2983 RMK FG4ST1AC2 SLP110 DENSITY ALT 4000FT
6:05 am
L
50 °F 1 mi 300 ft 100° 100° 9 kt METAR CYYC 231205Z 10009KT 1SM R35L/P6000FT/U R35R/P6000FT/N BR BKN003 BKN130 10/09 A2983 RMK FG5ST2AC1 AC TR SLP110 DENSITY ALT 4000FT
6:00 am
L
50 °F ¾ mi 13.000 ft 090° 090° 8 - 15 kt METAR CYYC 231200Z 09008G15KT 3/4SM R35L/P6000FT/D R35R/3000VP6000FT/U BR BKN130 10/09 A2983 RMK FG6AC1 FG HGT 400 FT SLP109 DENSITY ALT 4000FT
5:54 am
L
50 °F ⅝ mi 400 ft 070° 070° 12 kt METAR CYYC 231154Z 07012KT 5/8SM R35L/P6000FT/U R35R/3000VP6000FT/D BR VV004 10/09 A2984 RMK FG8 SLP110 DENSITY ALT 4000FT
5:00 am
V
52 °F 15 mi 13.000 ft 090° 090° 4 kt METAR CYYC 231100Z 09004KT 15SM FEW094 BKN130 11/08 A2983 RMK AC2AC5 SLP098 DENSITY ALT 4100FT
4:00 am
V
54 °F 15 mi 13.000 ft Var 000° 0 kt METAR CYYC 231000Z 00000KT 15SM BKN130 12/08 A2985 RMK AC6 SLP106 DENSITY ALT 4200FT
3:00 am
V
54 °F 15 mi 12.000 ft 190° 190° 2 kt METAR CYYC 230900Z 19002KT 15SM BKN120 12/08 A2986 RMK AC6 VIRGA NE SLP110 DENSITY ALT 4200FT
2:00 am
V
52 °F 15 mi 12.000 ft 200° 200° 6 kt METAR CYYC 230800Z 20006KT 15SM BKN120 BKN170 11/09 A2988 RMK AC5AC1 SLP119 DENSITY ALT 4100FT
1:00 am
V
54 °F 15 mi 12.000 ft 180° 180° 4 kt METAR CYYC 230700Z 18004KT 15SM BKN120 BKN160 12/08 A2989 RMK AC5AC1 SLP119 DENSITY ALT 4200FT
12:25 am
V
54 °F 15 mi 12.000 ft 170° 170° 4 kt METAR CYYC 230625Z 17004KT 15SM VCSH BKN120 12/09 A2991 RMK AC7 SH S SLP127 DENSITY ALT 4200FT
12:11 am
V
54 °F 15 mi 12.000 ft 190° 190° 3 kt METAR CYYC 230611Z 19003KT 15SM -RA BKN120 12/09 A2991 RMK AC7 PCPN VRY LGT SLP128 DENSITY ALT 4100FT
12:00 am
V
55 °F 15 mi 12.000 ft 180° 180° 3 kt METAR CYYC 230600Z 18003KT 15SM BKN120 13/09 A2991 RMK AC6 SLP127 DENSITY ALT 4200FT

22 czerwca 2022

Czas Kod Pogoda Temp. Widoczność Sufit Wiatr METAR/SPECI
11:00 pm
V
54 °F 15 mi - Var 000° 0 kt METAR CYYC 230500Z 00000KT 15SM FEW086 FEW150 FEW220 12/09 A2991 RMK AC1AC2CI1 AC TR CI TR SLP130 DENSITY ALT 4100FT
10:00 pm
V
54 °F 15 mi - 070° 070° 6 kt METAR CYYC 230400Z 07006KT 15SM FEW087 FEW220 12/08 A2990 RMK AC2CI1 CI TR SLP126 DENSITY ALT 4200FT
9:00 pm
V
57 °F 30 mi - 030° 030° 13 - 19 kt METAR CYYC 230300Z 03013G19KT 30SM FEW084 14/08 A2990 RMK AC2 SLP123 DENSITY ALT 4400FT
8:00 pm
V
61 °F 30 mi - 020° 020° 17 - 24 kt METAR CYYC 230200Z 02017G24KT 30SM SCT093 SCT220 16/07 A2990 RMK AC3CI1 CI TR SLP123 DENSITY ALT 4600FT
7:00 pm
V
63 °F 25 mi - 010° 010° 20 - 25 kt METAR CYYC 230100Z 01020G25KT 25SM SCT089 17/08 A2989 RMK AC3 SH DIST N / TCU ASOCTD N MOVG E SLP121 DENSITY ALT 4700FT
6:00 pm
V
66 °F 25 mi - 360° 360° 22 - 34 kt METAR CYYC 230000Z 36022G34KT 25SM SCT086 19/09 A2985 RMK AC3 SH DIST N-NE / ACC ASOCTD N-E MOVG E SLP107 DENSITY ALT 5000FT
5:00 pm
V
75 °F 30 mi - 260° 260° 14 - 20 kt METAR CYYC 222300Z 26014G20KT 230V300 30SM SCT083 24/04 A2982 RMK AC3 SH DIST N-NE / TCU ASOCTD NW-NE MOVG E SLP088 DENSITY ALT 5700FT
4:00 pm
V
75 °F 30 mi - 240° 240° 11 - 19 kt METAR CYYC 222200Z 24011G19KT 30SM SCT080 24/05 A2981 RMK AC4 SH DIST NE / TCU ASOCTD NE MOVG E SLP084 DENSITY ALT 5600FT
3:00 pm
V
75 °F 30 mi - 270° 270° 12 - 18 kt METAR CYYC 222100Z 27012G18KT 30SM FEW079 SCT100 24/04 A2983 RMK AC2AC1 TCU ASOCTD NE MOVG E / SH DIST NE SLP091 DENSITY ALT 5600FT
2:00 pm
V
73 °F 30 mi - 230° 230° 9 - 15 kt METAR CYYC 222000Z 23009G15KT 200V300 30SM FEW073 SCT120 23/05 A2984 RMK AC2AC1 SH DIST N / TCU ASOCTD N-NE MOVG E SLP096 DENSITY ALT 5500FT
1:00 pm
V
75 °F 30 mi - 240° 240° 9 - 16 kt METAR CYYC 221900Z 24009G16KT 220V300 30SM FEW067 SCT100 24/06 A2985 RMK AC2AC2 TCU ASOCTD NW-N MOVG E / SH DIST N+SW SLP097 DENSITY ALT 5500FT
12:00 pm
V
72 °F 40 mi - Var Var 4 kt METAR CYYC 221800Z VRB04KT 40SM FEW064 SCT100 22/08 A2988 RMK SC1AC3 ACC ASOCTD NW-N MOVG E / SH DIST NW SLP111 DENSITY ALT 5400FT
11:00 am
V
70 °F 30 mi - Var Var 2 kt METAR CYYC 221700Z VRB02KT 30SM FEW070 SCT110 21/09 A2990 RMK AC1AC3 AC TR ACC ASOCTD SW-NW MOVG E / SH DIST SW SLP118 DENSITY ALT 5200FT
10:00 am
V
70 °F 30 mi - 170° 170° 6 kt METAR CYYC 221600Z 17006KT 150V220 30SM SCT130 21/08 A2992 RMK AC3 VIRGA W SLP125 DENSITY ALT 5100FT
9:00 am
V
68 °F 30 mi - 160° 160° 5 kt METAR CYYC 221500Z 16005KT 150V220 30SM SCT130 20/08 A2994 RMK AC4 SLP129 DENSITY ALT 5000FT
Starsze dane

Pobierz naszą aplikację

Łatwy dostęp do całej pogody lotniczej na telefonie komórkowym i tablecie.
Z wieloma funkcjami niedostępnymi na stronie internetowej, takimi jak wsparcie offline i osobista lista lotnisk.

My i osoby trzecie śledzimy twoje zachowanie w internecie na naszej stronie za pomocą plików cookie. Jeśli kontynuujesz, zakładamy, że zgadzasz się z naszą polityką plików cookie. Dowiedz się więcej